sensor_id;sensor_type;location;lat;lon;timestamp;P1;durP1;ratioP1;P2;durP2;ratioP2
10389;SDS011;5241;47.830;12.972;2023-06-04T00:00:24;5.03;;;4.03;;
10389;SDS011;5241;47.830;12.972;2023-06-04T00:02:50;6.97;;;4.10;;
10389;SDS011;5241;47.830;12.972;2023-06-04T00:05:15;4.40;;;3.90;;
10389;SDS011;5241;47.830;12.972;2023-06-04T00:07:41;5.43;;;4.00;;
10389;SDS011;5241;47.830;12.972;2023-06-04T00:10:06;5.50;;;4.67;;
10389;SDS011;5241;47.830;12.972;2023-06-04T00:12:32;6.80;;;4.50;;
10389;SDS011;5241;47.830;12.972;2023-06-04T00:14:58;6.47;;;4.30;;
10389;SDS011;5241;47.830;12.972;2023-06-04T00:17:24;6.47;;;4.03;;
10389;SDS011;5241;47.830;12.972;2023-06-04T00:19:49;5.60;;;3.93;;
10389;SDS011;5241;47.830;12.972;2023-06-04T00:22:15;6.57;;;4.03;;
10389;SDS011;5241;47.830;12.972;2023-06-04T00:24:41;4.13;;;3.60;;
10389;SDS011;5241;47.830;12.972;2023-06-04T00:27:09;5.37;;;4.00;;
10389;SDS011;5241;47.830;12.972;2023-06-04T00:29:35;5.77;;;4.00;;
10389;SDS011;5241;47.830;12.972;2023-06-04T00:32:01;7.07;;;3.87;;
10389;SDS011;5241;47.830;12.972;2023-06-04T00:34:30;5.93;;;3.80;;
10389;SDS011;5241;47.830;12.972;2023-06-04T00:37:02;7.57;;;3.73;;
10389;SDS011;5241;47.830;12.972;2023-06-04T00:39:27;6.10;;;3.47;;
10389;SDS011;5241;47.830;12.972;2023-06-04T00:41:54;4.73;;;3.90;;
10389;SDS011;5241;47.830;12.972;2023-06-04T00:44:20;4.57;;;3.53;;
10389;SDS011;5241;47.830;12.972;2023-06-04T00:46:46;4.13;;;3.47;;
10389;SDS011;5241;47.830;12.972;2023-06-04T00:49:12;7.47;;;4.27;;
10389;SDS011;5241;47.830;12.972;2023-06-04T00:51:38;6.23;;;3.80;;
10389;SDS011;5241;47.830;12.972;2023-06-04T00:54:04;4.30;;;3.50;;
10389;SDS011;5241;47.830;12.972;2023-06-04T00:56:33;6.57;;;4.20;;
10389;SDS011;5241;47.830;12.972;2023-06-04T00:59:04;3.70;;;3.40;;
10389;SDS011;5241;47.830;12.972;2023-06-04T01:04:29;4.63;;;3.63;;
10389;SDS011;5241;47.830;12.972;2023-06-04T01:07:03;4.73;;;4.03;;
10389;SDS011;5241;47.830;12.972;2023-06-04T01:09:29;5.93;;;3.80;;
10389;SDS011;5241;47.830;12.972;2023-06-04T01:11:56;5.07;;;4.30;;
10389;SDS011;5241;47.830;12.972;2023-06-04T01:14:23;4.97;;;3.57;;
10389;SDS011;5241;47.830;12.972;2023-06-04T01:17:01;4.80;;;4.27;;
10389;SDS011;5241;47.830;12.972;2023-06-04T01:22:33;4.57;;;3.70;;
10389;SDS011;5241;47.830;12.972;2023-06-04T01:25:05;4.70;;;4.07;;
10389;SDS011;5241;47.830;12.972;2023-06-04T01:27:37;5.90;;;3.73;;
10389;SDS011;5241;47.830;12.972;2023-06-04T01:30:05;4.40;;;4.00;;
10389;SDS011;5241;47.830;12.972;2023-06-04T01:32:33;6.50;;;3.90;;
10389;SDS011;5241;47.830;12.972;2023-06-04T01:34:59;5.13;;;3.90;;
10389;SDS011;5241;47.830;12.972;2023-06-04T01:37:25;4.77;;;3.87;;
10389;SDS011;5241;47.830;12.972;2023-06-04T01:39:51;5.80;;;3.90;;
10389;SDS011;5241;47.830;12.972;2023-06-04T01:42:16;4.40;;;4.00;;
10389;SDS011;5241;47.830;12.972;2023-06-04T01:44:42;5.33;;;3.67;;
10389;SDS011;5241;47.830;12.972;2023-06-04T01:47:07;4.23;;;3.73;;
10389;SDS011;5241;47.830;12.972;2023-06-04T01:49:34;4.67;;;3.60;;
10389;SDS011;5241;47.830;12.972;2023-06-04T01:52:00;6.33;;;3.87;;
10389;SDS011;5241;47.830;12.972;2023-06-04T01:54:25;5.10;;;4.13;;
10389;SDS011;5241;47.830;12.972;2023-06-04T01:56:51;5.33;;;4.50;;
10389;SDS011;5241;47.830;12.972;2023-06-04T01:59:16;5.47;;;4.07;;
10389;SDS011;5241;47.830;12.972;2023-06-04T02:01:42;5.07;;;3.87;;
10389;SDS011;5241;47.830;12.972;2023-06-04T02:04:07;4.07;;;3.67;;
10389;SDS011;5241;47.830;12.972;2023-06-04T02:06:33;8.70;;;4.20;;
10389;SDS011;5241;47.830;12.972;2023-06-04T02:08:58;7.50;;;4.10;;
10389;SDS011;5241;47.830;12.972;2023-06-04T02:11:25;4.23;;;3.83;;
10389;SDS011;5241;47.830;12.972;2023-06-04T02:13:51;5.30;;;4.47;;
10389;SDS011;5241;47.830;12.972;2023-06-04T02:16:16;4.10;;;3.60;;
10389;SDS011;5241;47.830;12.972;2023-06-04T02:18:42;6.03;;;4.00;;
10389;SDS011;5241;47.830;12.972;2023-06-04T02:21:07;6.80;;;4.00;;
10389;SDS011;5241;47.830;12.972;2023-06-04T02:23:33;5.83;;;4.33;;
10389;SDS011;5241;47.830;12.972;2023-06-04T02:25:59;6.40;;;4.63;;
10389;SDS011;5241;47.830;12.972;2023-06-04T02:28:24;5.63;;;4.33;;
10389;SDS011;5241;47.830;12.972;2023-06-04T02:30:50;5.07;;;3.93;;
10389;SDS011;5241;47.830;12.972;2023-06-04T02:33:15;6.47;;;4.30;;
10389;SDS011;5241;47.830;12.972;2023-06-04T02:35:41;4.07;;;3.67;;
10389;SDS011;5241;47.830;12.972;2023-06-04T02:38:07;5.50;;;4.00;;
10389;SDS011;5241;47.830;12.972;2023-06-04T02:40:32;4.50;;;4.03;;
10389;SDS011;5241;47.830;12.972;2023-06-04T02:42:58;4.63;;;3.80;;
10389;SDS011;5241;47.830;12.972;2023-06-04T02:45:24;6.80;;;4.17;;
10389;SDS011;5241;47.830;12.972;2023-06-04T02:47:49;5.43;;;3.87;;
10389;SDS011;5241;47.830;12.972;2023-06-04T02:50:15;6.77;;;4.17;;
10389;SDS011;5241;47.830;12.972;2023-06-04T02:52:41;5.37;;;4.03;;
10389;SDS011;5241;47.830;12.972;2023-06-04T02:55:07;5.90;;;4.43;;
10389;SDS011;5241;47.830;12.972;2023-06-04T02:57:39;5.30;;;4.50;;
10389;SDS011;5241;47.830;12.972;2023-06-04T03:00:12;6.73;;;4.80;;
10389;SDS011;5241;47.830;12.972;2023-06-04T03:02:42;4.50;;;4.07;;
10389;SDS011;5241;47.830;12.972;2023-06-04T03:05:09;5.17;;;4.40;;
10389;SDS011;5241;47.830;12.972;2023-06-04T03:07:36;5.57;;;4.30;;
10389;SDS011;5241;47.830;12.972;2023-06-04T03:10:02;6.80;;;4.50;;
10389;SDS011;5241;47.830;12.972;2023-06-04T03:12:29;4.63;;;4.13;;
10389;SDS011;5241;47.830;12.972;2023-06-04T03:14:55;7.90;;;4.63;;
10389;SDS011;5241;47.830;12.972;2023-06-04T03:17:20;5.40;;;4.30;;
10389;SDS011;5241;47.830;12.972;2023-06-04T03:19:46;5.97;;;3.97;;
10389;SDS011;5241;47.830;12.972;2023-06-04T03:22:12;6.30;;;4.17;;
10389;SDS011;5241;47.830;12.972;2023-06-04T03:24:38;5.37;;;4.57;;
10389;SDS011;5241;47.830;12.972;2023-06-04T03:27:05;6.13;;;4.80;;
10389;SDS011;5241;47.830;12.972;2023-06-04T03:29:32;5.47;;;4.40;;
10389;SDS011;5241;47.830;12.972;2023-06-04T03:31:59;6.13;;;4.50;;
10389;SDS011;5241;47.830;12.972;2023-06-04T03:34:25;5.20;;;4.53;;
10389;SDS011;5241;47.830;12.972;2023-06-04T03:36:51;5.63;;;4.30;;
10389;SDS011;5241;47.830;12.972;2023-06-04T03:39:18;8.03;;;4.60;;
10389;SDS011;5241;47.830;12.972;2023-06-04T03:41:44;6.07;;;4.53;;
10389;SDS011;5241;47.830;12.972;2023-06-04T03:44:09;4.60;;;4.00;;
10389;SDS011;5241;47.830;12.972;2023-06-04T03:46:38;4.97;;;4.07;;
10389;SDS011;5241;47.830;12.972;2023-06-04T03:49:04;6.20;;;4.60;;
10389;SDS011;5241;47.830;12.972;2023-06-04T03:51:29;4.87;;;4.37;;
10389;SDS011;5241;47.830;12.972;2023-06-04T03:53:55;4.53;;;4.13;;
10389;SDS011;5241;47.830;12.972;2023-06-04T03:56:23;8.47;;;4.40;;
10389;SDS011;5241;47.830;12.972;2023-06-04T03:58:48;4.87;;;4.00;;
10389;SDS011;5241;47.830;12.972;2023-06-04T04:01:14;5.63;;;3.90;;
10389;SDS011;5241;47.830;12.972;2023-06-04T04:03:40;5.00;;;4.13;;
10389;SDS011;5241;47.830;12.972;2023-06-04T04:06:07;6.40;;;4.13;;
10389;SDS011;5241;47.830;12.972;2023-06-04T04:08:35;6.40;;;4.40;;
10389;SDS011;5241;47.830;12.972;2023-06-04T04:11:00;4.90;;;4.23;;
10389;SDS011;5241;47.830;12.972;2023-06-04T04:13:26;5.97;;;4.00;;
10389;SDS011;5241;47.830;12.972;2023-06-04T04:15:52;5.70;;;3.90;;
10389;SDS011;5241;47.830;12.972;2023-06-04T04:18:18;6.43;;;4.00;;
10389;SDS011;5241;47.830;12.972;2023-06-04T04:20:47;4.37;;;3.97;;
10389;SDS011;5241;47.830;12.972;2023-06-04T04:23:13;4.17;;;3.63;;
10389;SDS011;5241;47.830;12.972;2023-06-04T04:25:39;4.07;;;3.63;;
10389;SDS011;5241;47.830;12.972;2023-06-04T04:28:04;4.77;;;3.80;;
10389;SDS011;5241;47.830;12.972;2023-06-04T04:30:33;6.40;;;3.57;;
10389;SDS011;5241;47.830;12.972;2023-06-04T04:32:59;4.77;;;4.00;;
10389;SDS011;5241;47.830;12.972;2023-06-04T04:35:30;4.47;;;3.90;;
10389;SDS011;5241;47.830;12.972;2023-06-04T04:37:57;4.00;;;3.60;;
10389;SDS011;5241;47.830;12.972;2023-06-04T04:40:29;4.80;;;4.30;;
10389;SDS011;5241;47.830;12.972;2023-06-04T04:42:55;5.03;;;3.87;;
10389;SDS011;5241;47.830;12.972;2023-06-04T04:45:21;4.20;;;3.80;;
10389;SDS011;5241;47.830;12.972;2023-06-04T04:47:47;4.33;;;3.53;;
10389;SDS011;5241;47.830;12.972;2023-06-04T04:50:12;4.27;;;3.70;;
10389;SDS011;5241;47.830;12.972;2023-06-04T04:52:38;4.27;;;3.73;;
10389;SDS011;5241;47.830;12.972;2023-06-04T04:55:04;6.93;;;4.00;;
10389;SDS011;5241;47.830;12.972;2023-06-04T04:57:30;5.50;;;3.60;;
10389;SDS011;5241;47.830;12.972;2023-06-04T04:59:56;4.37;;;3.63;;
10389;SDS011;5241;47.830;12.972;2023-06-04T05:02:21;4.53;;;3.47;;
10389;SDS011;5241;47.830;12.972;2023-06-04T05:04:47;6.20;;;3.87;;
10389;SDS011;5241;47.830;12.972;2023-06-04T05:07:12;7.63;;;4.43;;
10389;SDS011;5241;47.830;12.972;2023-06-04T05:09:38;3.80;;;3.40;;
10389;SDS011;5241;47.830;12.972;2023-06-04T05:12:03;6.57;;;3.50;;
10389;SDS011;5241;47.830;12.972;2023-06-04T05:14:29;5.80;;;3.80;;
10389;SDS011;5241;47.830;12.972;2023-06-04T05:16:54;5.73;;;3.73;;
10389;SDS011;5241;47.830;12.972;2023-06-04T05:19:23;6.97;;;3.60;;
10389;SDS011;5241;47.830;12.972;2023-06-04T05:21:49;6.33;;;4.40;;
10389;SDS011;5241;47.830;12.972;2023-06-04T05:24:16;4.07;;;3.10;;
10389;SDS011;5241;47.830;12.972;2023-06-04T05:26:41;3.53;;;3.23;;
10389;SDS011;5241;47.830;12.972;2023-06-04T05:29:07;4.00;;;3.33;;
10389;SDS011;5241;47.830;12.972;2023-06-04T05:31:33;4.47;;;3.00;;
10389;SDS011;5241;47.830;12.972;2023-06-04T05:34:00;7.03;;;3.07;;
10389;SDS011;5241;47.830;12.972;2023-06-04T05:36:30;3.90;;;3.40;;
10389;SDS011;5241;47.830;12.972;2023-06-04T05:38:56;5.97;;;3.30;;
10389;SDS011;5241;47.830;12.972;2023-06-04T05:41:25;4.90;;;3.07;;
10389;SDS011;5241;47.830;12.972;2023-06-04T05:43:53;3.67;;;3.30;;
10389;SDS011;5241;47.830;12.972;2023-06-04T05:46:20;5.27;;;3.17;;
10389;SDS011;5241;47.830;12.972;2023-06-04T05:48:54;4.90;;;3.43;;
10389;SDS011;5241;47.830;12.972;2023-06-04T05:51:20;6.83;;;3.27;;
10389;SDS011;5241;47.830;12.972;2023-06-04T05:53:46;3.30;;;2.97;;
10389;SDS011;5241;47.830;12.972;2023-06-04T05:56:12;4.80;;;3.30;;
10389;SDS011;5241;47.830;12.972;2023-06-04T05:58:38;4.97;;;3.13;;
10389;SDS011;5241;47.830;12.972;2023-06-04T06:01:03;7.30;;;3.30;;
10389;SDS011;5241;47.830;12.972;2023-06-04T06:03:29;5.60;;;3.20;;
10389;SDS011;5241;47.830;12.972;2023-06-04T06:05:55;3.77;;;3.20;;
10389;SDS011;5241;47.830;12.972;2023-06-04T06:08:22;3.10;;;2.80;;
10389;SDS011;5241;47.830;12.972;2023-06-04T06:10:47;4.23;;;3.23;;
10389;SDS011;5241;47.830;12.972;2023-06-04T06:13:13;3.30;;;2.93;;
10389;SDS011;5241;47.830;12.972;2023-06-04T06:15:38;4.17;;;3.50;;
10389;SDS011;5241;47.830;12.972;2023-06-04T06:18:04;5.60;;;3.27;;
10389;SDS011;5241;47.830;12.972;2023-06-04T06:20:30;4.33;;;3.27;;
10389;SDS011;5241;47.830;12.972;2023-06-04T06:22:57;4.83;;;3.63;;
10389;SDS011;5241;47.830;12.972;2023-06-04T06:25:22;5.80;;;3.50;;
10389;SDS011;5241;47.830;12.972;2023-06-04T06:27:48;5.33;;;3.67;;
10389;SDS011;5241;47.830;12.972;2023-06-04T06:30:14;4.50;;;3.33;;
10389;SDS011;5241;47.830;12.972;2023-06-04T06:32:39;5.13;;;3.60;;
10389;SDS011;5241;47.830;12.972;2023-06-04T06:35:05;4.17;;;3.37;;
10389;SDS011;5241;47.830;12.972;2023-06-04T06:37:32;4.97;;;3.80;;
10389;SDS011;5241;47.830;12.972;2023-06-04T06:39:58;8.40;;;4.00;;
10389;SDS011;5241;47.830;12.972;2023-06-04T06:42:24;4.10;;;3.60;;
10389;SDS011;5241;47.830;12.972;2023-06-04T06:44:49;3.70;;;3.00;;
10389;SDS011;5241;47.830;12.972;2023-06-04T06:47:15;3.40;;;3.10;;
10389;SDS011;5241;47.830;12.972;2023-06-04T06:49:41;3.83;;;3.37;;
10389;SDS011;5241;47.830;12.972;2023-06-04T06:52:07;3.57;;;2.70;;
10389;SDS011;5241;47.830;12.972;2023-06-04T06:54:35;4.33;;;3.43;;
10389;SDS011;5241;47.830;12.972;2023-06-04T06:57:00;5.67;;;3.43;;
10389;SDS011;5241;47.830;12.972;2023-06-04T06:59:27;3.50;;;3.20;;
10389;SDS011;5241;47.830;12.972;2023-06-04T07:01:53;3.07;;;2.77;;
10389;SDS011;5241;47.830;12.972;2023-06-04T07:04:18;4.47;;;3.00;;
10389;SDS011;5241;47.830;12.972;2023-06-04T07:06:44;5.03;;;3.07;;
10389;SDS011;5241;47.830;12.972;2023-06-04T07:09:09;4.57;;;2.77;;
10389;SDS011;5241;47.830;12.972;2023-06-04T07:11:35;4.60;;;3.20;;
10389;SDS011;5241;47.830;12.972;2023-06-04T07:14:01;4.20;;;3.67;;
10389;SDS011;5241;47.830;12.972;2023-06-04T07:16:27;4.27;;;3.57;;
10389;SDS011;5241;47.830;12.972;2023-06-04T07:18:53;3.43;;;2.87;;
10389;SDS011;5241;47.830;12.972;2023-06-04T07:21:19;4.17;;;3.30;;
10389;SDS011;5241;47.830;12.972;2023-06-04T07:23:46;4.30;;;2.93;;
10389;SDS011;5241;47.830;12.972;2023-06-04T07:26:14;5.20;;;3.37;;
10389;SDS011;5241;47.830;12.972;2023-06-04T07:28:41;4.73;;;3.63;;
10389;SDS011;5241;47.830;12.972;2023-06-04T07:31:07;3.90;;;3.33;;
10389;SDS011;5241;47.830;12.972;2023-06-04T07:33:32;3.73;;;3.33;;
10389;SDS011;5241;47.830;12.972;2023-06-04T07:35:58;4.17;;;3.20;;
10389;SDS011;5241;47.830;12.972;2023-06-04T07:38:24;4.27;;;3.60;;
10389;SDS011;5241;47.830;12.972;2023-06-04T07:40:49;4.93;;;3.53;;
10389;SDS011;5241;47.830;12.972;2023-06-04T07:43:15;5.03;;;3.40;;
10389;SDS011;5241;47.830;12.972;2023-06-04T07:45:40;4.73;;;3.40;;
10389;SDS011;5241;47.830;12.972;2023-06-04T07:48:08;3.97;;;3.50;;
10389;SDS011;5241;47.830;12.972;2023-06-04T07:50:35;5.70;;;3.47;;
10389;SDS011;5241;47.830;12.972;2023-06-04T07:53:01;4.07;;;3.30;;
10389;SDS011;5241;47.830;12.972;2023-06-04T07:55:26;4.63;;;3.57;;
10389;SDS011;5241;47.830;12.972;2023-06-04T07:57:52;4.57;;;3.10;;
10389;SDS011;5241;47.830;12.972;2023-06-04T08:00:17;4.37;;;3.27;;
10389;SDS011;5241;47.830;12.972;2023-06-04T08:02:43;3.50;;;3.20;;
10389;SDS011;5241;47.830;12.972;2023-06-04T08:05:08;3.63;;;3.33;;
10389;SDS011;5241;47.830;12.972;2023-06-04T08:07:34;3.70;;;3.40;;
10389;SDS011;5241;47.830;12.972;2023-06-04T08:10:00;5.03;;;3.60;;
10389;SDS011;5241;47.830;12.972;2023-06-04T08:12:26;5.77;;;3.27;;
10389;SDS011;5241;47.830;12.972;2023-06-04T08:14:51;5.30;;;3.40;;
10389;SDS011;5241;47.830;12.972;2023-06-04T08:17:20;4.07;;;3.13;;
10389;SDS011;5241;47.830;12.972;2023-06-04T08:19:45;3.77;;;3.20;;
10389;SDS011;5241;47.830;12.972;2023-06-04T08:22:11;5.60;;;3.20;;
10389;SDS011;5241;47.830;12.972;2023-06-04T08:24:36;4.80;;;3.50;;
10389;SDS011;5241;47.830;12.972;2023-06-04T08:27:02;4.73;;;4.00;;
10389;SDS011;5241;47.830;12.972;2023-06-04T08:29:27;5.07;;;3.37;;
10389;SDS011;5241;47.830;12.972;2023-06-04T08:31:53;4.67;;;3.77;;
10389;SDS011;5241;47.830;12.972;2023-06-04T08:34:19;4.50;;;3.00;;
10389;SDS011;5241;47.830;12.972;2023-06-04T08:36:44;5.30;;;3.63;;
10389;SDS011;5241;47.830;12.972;2023-06-04T08:39:11;5.67;;;3.27;;
10389;SDS011;5241;47.830;12.972;2023-06-04T08:41:44;4.47;;;3.67;;
10389;SDS011;5241;47.830;12.972;2023-06-04T08:44:13;4.30;;;3.57;;
10389;SDS011;5241;47.830;12.972;2023-06-04T08:46:41;4.30;;;3.27;;
10389;SDS011;5241;47.830;12.972;2023-06-04T08:49:09;3.97;;;3.57;;
10389;SDS011;5241;47.830;12.972;2023-06-04T08:51:41;3.53;;;3.20;;
10389;SDS011;5241;47.830;12.972;2023-06-04T08:54:07;5.87;;;3.40;;
10389;SDS011;5241;47.830;12.972;2023-06-04T08:56:34;4.70;;;3.43;;
10389;SDS011;5241;47.830;12.972;2023-06-04T08:59:02;4.33;;;3.30;;
10389;SDS011;5241;47.830;12.972;2023-06-04T09:01:30;9.07;;;3.30;;
10389;SDS011;5241;47.830;12.972;2023-06-04T09:03:56;5.17;;;3.40;;
10389;SDS011;5241;47.830;12.972;2023-06-04T09:06:26;3.60;;;3.13;;
10389;SDS011;5241;47.830;12.972;2023-06-04T09:08:51;3.53;;;3.03;;
10389;SDS011;5241;47.830;12.972;2023-06-04T09:11:21;3.40;;;3.10;;
10389;SDS011;5241;47.830;12.972;2023-06-04T09:13:48;3.47;;;3.13;;
10389;SDS011;5241;47.830;12.972;2023-06-04T09:16:15;4.50;;;3.17;;
10389;SDS011;5241;47.830;12.972;2023-06-04T09:18:40;6.13;;;3.60;;
10389;SDS011;5241;47.830;12.972;2023-06-04T09:21:07;4.17;;;3.20;;
10389;SDS011;5241;47.830;12.972;2023-06-04T09:23:46;4.13;;;3.40;;
10389;SDS011;5241;47.830;12.972;2023-06-04T09:26:12;4.20;;;3.33;;
10389;SDS011;5241;47.830;12.972;2023-06-04T09:28:41;4.03;;;3.20;;
10389;SDS011;5241;47.830;12.972;2023-06-04T09:31:08;3.77;;;3.40;;
10389;SDS011;5241;47.830;12.972;2023-06-04T09:33:41;4.23;;;3.40;;
10389;SDS011;5241;47.830;12.972;2023-06-04T09:36:08;3.33;;;3.03;;
10389;SDS011;5241;47.830;12.972;2023-06-04T09:38:34;3.60;;;3.30;;
10389;SDS011;5241;47.830;12.972;2023-06-04T09:41:00;4.13;;;3.53;;
10389;SDS011;5241;47.830;12.972;2023-06-04T09:43:29;7.33;;;3.50;;
10389;SDS011;5241;47.830;12.972;2023-06-04T09:45:55;4.47;;;3.50;;
10389;SDS011;5241;47.830;12.972;2023-06-04T09:48:22;3.43;;;3.13;;
10389;SDS011;5241;47.830;12.972;2023-06-04T09:50:48;4.57;;;3.10;;
10389;SDS011;5241;47.830;12.972;2023-06-04T09:56:00;4.10;;;3.07;;
10389;SDS011;5241;47.830;12.972;2023-06-04T09:58:28;3.73;;;3.33;;
10389;SDS011;5241;47.830;12.972;2023-06-04T10:00:55;3.67;;;3.03;;
10389;SDS011;5241;47.830;12.972;2023-06-04T10:03:23;4.10;;;3.07;;
10389;SDS011;5241;47.830;12.972;2023-06-04T10:05:51;4.87;;;3.20;;
10389;SDS011;5241;47.830;12.972;2023-06-04T10:08:18;3.60;;;3.10;;
10389;SDS011;5241;47.830;12.972;2023-06-04T10:10:46;6.03;;;3.23;;
10389;SDS011;5241;47.830;12.972;2023-06-04T10:13:17;3.30;;;3.00;;
10389;SDS011;5241;47.830;12.972;2023-06-04T10:15:43;4.33;;;3.13;;
10389;SDS011;5241;47.830;12.972;2023-06-04T10:18:13;4.67;;;3.07;;
10389;SDS011;5241;47.830;12.972;2023-06-04T10:20:40;5.97;;;3.43;;
10389;SDS011;5241;47.830;12.972;2023-06-04T10:23:06;4.40;;;3.20;;
10389;SDS011;5241;47.830;12.972;2023-06-04T10:25:34;4.73;;;3.30;;
10389;SDS011;5241;47.830;12.972;2023-06-04T10:28:03;4.10;;;3.30;;
10389;SDS011;5241;47.830;12.972;2023-06-04T10:30:29;5.40;;;3.87;;
10389;SDS011;5241;47.830;12.972;2023-06-04T10:32:58;5.63;;;3.33;;
10389;SDS011;5241;47.830;12.972;2023-06-04T10:35:31;3.77;;;3.37;;
10389;SDS011;5241;47.830;12.972;2023-06-04T10:38:10;3.73;;;3.40;;
10389;SDS011;5241;47.830;12.972;2023-06-04T10:40:38;4.33;;;3.50;;
10389;SDS011;5241;47.830;12.972;2023-06-04T10:43:05;4.17;;;3.47;;
10389;SDS011;5241;47.830;12.972;2023-06-04T10:45:31;6.03;;;3.70;;
10389;SDS011;5241;47.830;12.972;2023-06-04T10:48:03;3.30;;;3.00;;
10389;SDS011;5241;47.830;12.972;2023-06-04T10:50:34;4.27;;;3.53;;
10389;SDS011;5241;47.830;12.972;2023-06-04T10:53:11;3.60;;;3.30;;
10389;SDS011;5241;47.830;12.972;2023-06-04T10:55:43;4.10;;;3.33;;
10389;SDS011;5241;47.830;12.972;2023-06-04T10:58:09;4.20;;;3.03;;
10389;SDS011;5241;47.830;12.972;2023-06-04T11:00:38;5.77;;;3.23;;
10389;SDS011;5241;47.830;12.972;2023-06-04T11:03:12;3.50;;;3.20;;
10389;SDS011;5241;47.830;12.972;2023-06-04T11:05:44;3.30;;;3.00;;
10389;SDS011;5241;47.830;12.972;2023-06-04T11:08:12;5.90;;;3.20;;
10389;SDS011;5241;47.830;12.972;2023-06-04T11:10:42;4.67;;;3.30;;
10389;SDS011;5241;47.830;12.972;2023-06-04T11:13:09;6.07;;;3.20;;
10389;SDS011;5241;47.830;12.972;2023-06-04T11:15:44;3.57;;;3.27;;
10389;SDS011;5241;47.830;12.972;2023-06-04T11:18:14;4.10;;;3.47;;
10389;SDS011;5241;47.830;12.972;2023-06-04T11:20:46;4.63;;;3.50;;
10389;SDS011;5241;47.830;12.972;2023-06-04T11:23:13;3.87;;;3.37;;
10389;SDS011;5241;47.830;12.972;2023-06-04T11:25:40;3.77;;;3.37;;
10389;SDS011;5241;47.830;12.972;2023-06-04T11:28:08;4.37;;;3.30;;
10389;SDS011;5241;47.830;12.972;2023-06-04T11:30:56;3.80;;;2.87;;
10389;SDS011;5241;47.830;12.972;2023-06-04T11:33:23;4.47;;;3.43;;
10389;SDS011;5241;47.830;12.972;2023-06-04T11:35:48;4.67;;;3.57;;
10389;SDS011;5241;47.830;12.972;2023-06-04T11:38:14;3.77;;;3.47;;
10389;SDS011;5241;47.830;12.972;2023-06-04T11:40:39;3.37;;;3.00;;
10389;SDS011;5241;47.830;12.972;2023-06-04T11:43:05;3.83;;;3.20;;
10389;SDS011;5241;47.830;12.972;2023-06-04T11:45:30;4.20;;;3.50;;
10389;SDS011;5241;47.830;12.972;2023-06-04T11:47:57;4.43;;;3.63;;
10389;SDS011;5241;47.830;12.972;2023-06-04T11:50:23;5.30;;;3.60;;
10389;SDS011;5241;47.830;12.972;2023-06-04T11:52:52;4.77;;;3.40;;
10389;SDS011;5241;47.830;12.972;2023-06-04T11:55:18;5.27;;;3.50;;
10389;SDS011;5241;47.830;12.972;2023-06-04T11:57:45;3.80;;;3.20;;
10389;SDS011;5241;47.830;12.972;2023-06-04T12:00:12;4.13;;;3.13;;
10389;SDS011;5241;47.830;12.972;2023-06-04T12:02:48;4.20;;;3.57;;
10389;SDS011;5241;47.830;12.972;2023-06-04T12:05:17;4.67;;;3.23;;
10389;SDS011;5241;47.830;12.972;2023-06-04T12:07:48;4.97;;;3.23;;
10389;SDS011;5241;47.830;12.972;2023-06-04T12:10:18;5.37;;;3.73;;
10389;SDS011;5241;47.830;12.972;2023-06-04T12:12:45;4.07;;;3.67;;
10389;SDS011;5241;47.830;12.972;2023-06-04T12:15:11;3.70;;;3.27;;
10389;SDS011;5241;47.830;12.972;2023-06-04T12:17:50;4.47;;;3.80;;
10389;SDS011;5241;47.830;12.972;2023-06-04T12:20:17;4.90;;;4.10;;
10389;SDS011;5241;47.830;12.972;2023-06-04T12:22:57;5.87;;;3.60;;
10389;SDS011;5241;47.830;12.972;2023-06-04T12:25:23;5.87;;;3.60;;
10389;SDS011;5241;47.830;12.972;2023-06-04T12:27:53;5.60;;;3.67;;
10389;SDS011;5241;47.830;12.972;2023-06-04T12:30:18;5.53;;;3.60;;
10389;SDS011;5241;47.830;12.972;2023-06-04T12:32:44;4.50;;;3.70;;
10389;SDS011;5241;47.830;12.972;2023-06-04T12:35:13;3.57;;;3.27;;
10389;SDS011;5241;47.830;12.972;2023-06-04T12:37:40;4.95;;;3.88;;
10389;SDS011;5241;47.830;12.972;2023-06-04T12:40:06;6.30;;;3.90;;
10389;SDS011;5241;47.830;12.972;2023-06-04T12:42:32;4.05;;;3.72;;
10389;SDS011;5241;47.830;12.972;2023-06-04T12:44:58;5.65;;;3.72;;
10389;SDS011;5241;47.830;12.972;2023-06-04T12:47:23;4.00;;;3.70;;
10389;SDS011;5241;47.830;12.972;2023-06-04T12:49:49;4.28;;;3.88;;
10389;SDS011;5241;47.830;12.972;2023-06-04T12:52:16;4.93;;;3.63;;
10389;SDS011;5241;47.830;12.972;2023-06-04T12:54:42;4.60;;;3.55;;
10389;SDS011;5241;47.830;12.972;2023-06-04T12:57:08;4.15;;;3.47;;
10389;SDS011;5241;47.830;12.972;2023-06-04T12:59:34;3.78;;;3.47;;
10389;SDS011;5241;47.830;12.972;2023-06-04T13:01:59;3.60;;;3.30;;
10389;SDS011;5241;47.830;12.972;2023-06-04T13:04:25;5.63;;;3.63;;
10389;SDS011;5241;47.830;12.972;2023-06-04T13:06:51;5.63;;;3.80;;
10389;SDS011;5241;47.830;12.972;2023-06-04T13:09:23;4.65;;;4.05;;
10389;SDS011;5241;47.830;12.972;2023-06-04T13:11:50;4.88;;;3.80;;
10389;SDS011;5241;47.830;12.972;2023-06-04T13:14:16;4.18;;;3.67;;
10389;SDS011;5241;47.830;12.972;2023-06-04T13:16:42;5.38;;;3.83;;
10389;SDS011;5241;47.830;12.972;2023-06-04T13:19:07;3.83;;;3.50;;
10389;SDS011;5241;47.830;12.972;2023-06-04T13:21:33;6.03;;;3.63;;
10389;SDS011;5241;47.830;12.972;2023-06-04T13:24:00;3.75;;;3.38;;
10389;SDS011;5241;47.830;12.972;2023-06-04T13:26:26;5.03;;;4.60;;
10389;SDS011;5241;47.830;12.972;2023-06-04T13:28:51;5.80;;;3.83;;
10389;SDS011;5241;47.830;12.972;2023-06-04T13:31:17;4.15;;;3.58;;
10389;SDS011;5241;47.830;12.972;2023-06-04T13:33:43;4.45;;;3.40;;
10389;SDS011;5241;47.830;12.972;2023-06-04T13:36:09;6.32;;;3.80;;
10389;SDS011;5241;47.830;12.972;2023-06-04T13:38:34;9.35;;;3.92;;
10389;SDS011;5241;47.830;12.972;2023-06-04T13:41:00;3.93;;;3.53;;
10389;SDS011;5241;47.830;12.972;2023-06-04T13:43:26;5.87;;;3.83;;
10389;SDS011;5241;47.830;12.972;2023-06-04T13:45:51;3.90;;;3.60;;
10389;SDS011;5241;47.830;12.972;2023-06-04T13:48:17;4.20;;;3.80;;
10389;SDS011;5241;47.830;12.972;2023-06-04T13:50:43;3.90;;;3.60;;
10389;SDS011;5241;47.830;12.972;2023-06-04T13:53:09;4.00;;;3.60;;
10389;SDS011;5241;47.830;12.972;2023-06-04T13:55:34;4.87;;;4.00;;
10389;SDS011;5241;47.830;12.972;2023-06-04T13:58:00;3.90;;;3.53;;
10389;SDS011;5241;47.830;12.972;2023-06-04T14:00:25;5.30;;;3.90;;
10389;SDS011;5241;47.830;12.972;2023-06-04T14:02:52;5.83;;;4.00;;
10389;SDS011;5241;47.830;12.972;2023-06-04T14:05:19;4.30;;;3.90;;
10389;SDS011;5241;47.830;12.972;2023-06-04T14:07:45;6.77;;;3.63;;
10389;SDS011;5241;47.830;12.972;2023-06-04T14:10:11;5.63;;;3.67;;
10389;SDS011;5241;47.830;12.972;2023-06-04T14:12:37;5.73;;;3.40;;
10389;SDS011;5241;47.830;12.972;2023-06-04T14:15:07;4.30;;;3.77;;
10389;SDS011;5241;47.830;12.972;2023-06-04T14:17:33;6.80;;;3.87;;
10389;SDS011;5241;47.830;12.972;2023-06-04T14:19:59;4.17;;;3.67;;
10389;SDS011;5241;47.830;12.972;2023-06-04T14:22:35;4.27;;;3.87;;
10389;SDS011;5241;47.830;12.972;2023-06-04T14:25:03;7.03;;;3.90;;
10389;SDS011;5241;47.830;12.972;2023-06-04T14:27:29;5.43;;;3.93;;
10389;SDS011;5241;47.830;12.972;2023-06-04T14:29:55;4.57;;;3.80;;
10389;SDS011;5241;47.830;12.972;2023-06-04T14:32:21;4.87;;;3.70;;
10389;SDS011;5241;47.830;12.972;2023-06-04T14:34:46;4.50;;;4.10;;
10389;SDS011;5241;47.830;12.972;2023-06-04T14:37:12;5.67;;;3.77;;
10389;SDS011;5241;47.830;12.972;2023-06-04T14:39:37;4.80;;;4.10;;
10389;SDS011;5241;47.830;12.972;2023-06-04T14:42:04;4.30;;;3.90;;
10389;SDS011;5241;47.830;12.972;2023-06-04T14:44:30;4.10;;;3.70;;
10389;SDS011;5241;47.830;12.972;2023-06-04T14:46:55;5.57;;;3.77;;
10389;SDS011;5241;47.830;12.972;2023-06-04T14:49:21;4.53;;;4.03;;
10389;SDS011;5241;47.830;12.972;2023-06-04T14:51:46;6.17;;;3.83;;
10389;SDS011;5241;47.830;12.972;2023-06-04T14:54:12;5.80;;;4.07;;